Time;durP1;ratioP1;P1;durP2;ratioP2;P2;SDS_P1;SDS_P2;PMS_P1;PMS_P2;Temp;Humidity;BMP_temperature;BMP_pressure;BME280_temperature;BME280_humidity;BME280_pressure;Samples;Min_cycle;Max_cycle;Signal;HPM_P1;HPM_P2
2022/01/05 00:02:49;;;;;;;0.00;0.00;;;12.00;61.90;;;;;;6351883;27;20047;-71
2022/01/05 00:05:50;;;;;;;0.43;0.20;;;11.60;63.80;;;;;;6354178;27;20050;-71
2022/01/05 00:08:51;;;;;;;0.00;0.00;;;11.20;65.00;;;;;;6338623;27;20047;-71
2022/01/05 00:11:52;;;;;;;0.20;0.10;;;10.90;66.30;;;;;;6338496;27;20027;-70
2022/01/05 00:14:53;;;;;;;0.28;0.10;;;10.70;67.20;;;;;;6354904;27;20027;-69
2022/01/05 00:17:54;;;;;;;0.10;0.00;;;10.50;68.00;;;;;;6354778;27;20451;-71
2022/01/05 00:20:56;;;;;;;0.10;0.05;;;10.40;69.00;;;;;;6355496;27;20356;-69
2022/01/05 00:23:57;;;;;;;0.00;0.00;;;10.20;69.50;;;;;;6354994;27;20038;-69
2022/01/05 00:26:58;;;;;;;0.88;0.10;;;10.10;69.70;;;;;;6351629;27;20043;-70
2022/01/05 00:29:59;;;;;;;0.63;0.10;;;9.90;69.80;;;;;;6350782;27;20043;-70
2022/01/05 00:33:00;;;;;;;0.25;0.08;;;9.90;70.00;;;;;;6355577;27;20057;-72
2022/01/05 00:36:03;;;;;;;0.20;0.20;;;9.80;70.20;;;;;;6417490;27;20129;-70
2022/01/05 00:39:05;;;;;;;0.10;0.10;;;9.70;70.40;;;;;;6424691;27;20038;-69
2022/01/05 00:42:06;;;;;;;1.38;0.10;;;9.60;70.70;;;;;;6406634;27;20396;-70
2022/01/05 00:45:08;;;;;;;0.00;0.00;;;9.60;70.90;;;;;;6424162;27;20053;-70
2022/01/05 00:48:09;;;;;;;0.00;0.00;;;9.50;71.10;;;;;;6403595;27;20042;-70
2022/01/05 00:51:11;;;;;;;0.00;0.00;;;9.40;71.30;;;;;;6404488;27;20451;-69
2022/01/05 00:54:12;;;;;;;0.00;0.00;;;9.40;71.40;;;;;;6405218;27;20018;-71
2022/01/05 00:57:13;;;;;;;0.80;0.10;;;9.30;71.40;;;;;;6422857;27;20034;-69
2022/01/05 01:00:14;;;;;;;0.00;0.00;;;9.20;71.50;;;;;;6385035;27;20446;-69
2022/01/05 01:03:15;;;;;;;0.57;0.10;;;9.20;71.40;;;;;;6378270;27;20031;-69
2022/01/05 01:06:16;;;;;;;0.00;0.00;;;9.20;71.90;;;;;;6380251;27;20110;-69
2022/01/05 01:09:17;;;;;;;7.03;0.40;;;9.10;72.00;;;;;;6363027;27;20031;-69
2022/01/05 01:12:18;;;;;;;1.02;0.15;;;9.10;72.00;;;;;;6398029;27;20532;-69
2022/01/05 01:15:20;;;;;;;0.17;0.00;;;9.10;72.00;;;;;;6398979;27;20038;-68
2022/01/05 01:18:21;;;;;;;0.00;0.00;;;9.10;71.80;;;;;;6387342;27;20436;-70
2022/01/05 01:21:22;;;;;;;0.00;0.00;;;9.10;71.80;;;;;;6404794;27;20082;-68
2022/01/05 01:24:24;;;;;;;0.13;0.13;;;9.10;71.80;;;;;;6405884;27;20435;-70
2022/01/05 01:27:25;;;;;;;0.08;0.08;;;9.10;71.80;;;;;;6404525;27;20034;-69
2022/01/05 01:30:26;;;;;;;0.10;0.10;;;9.10;71.70;;;;;;6374766;27;20061;-69
2022/01/05 01:33:27;;;;;;;0.20;0.20;;;9.10;71.90;;;;;;6364951;27;20048;-68
2022/01/05 01:36:28;;;;;;;0.13;0.13;;;9.20;72.00;;;;;;6356183;27;20063;-69
2022/01/05 01:39:29;;;;;;;0.13;0.10;;;9.30;72.00;;;;;;6355740;27;20120;-69
2022/01/05 01:42:30;;;;;;;0.28;0.10;;;9.30;71.60;;;;;;6337185;28;20043;-68
2022/01/05 01:45:33;;;;;;;0.00;0.00;;;9.40;71.50;;;;;;6379172;27;20037;-69
2022/01/05 01:48:35;;;;;;;0.00;0.00;;;9.40;71.30;;;;;;6354174;27;20019;-69
2022/01/05 01:51:36;;;;;;;0.00;0.00;;;9.40;71.20;;;;;;6372280;28;20071;-68
2022/01/05 01:54:38;;;;;;;0.08;0.03;;;9.30;71.10;;;;;;6354527;28;20032;-69
2022/01/05 01:57:42;;;;;;;4.00;0.20;;;9.20;70.90;;;;;;6345732;28;20046;-69
2022/01/05 02:00:43;;;;;;;0.00;0.00;;;9.20;71.20;;;;;;6342325;27;20051;-68
2022/01/05 02:03:44;;;;;;;0.10;0.00;;;9.10;71.40;;;;;;6339968;27;20087;-69
2022/01/05 02:06:45;;;;;;;1.45;0.15;;;9.10;71.70;;;;;;6340101;27;20353;-68
2022/01/05 02:09:46;;;;;;;0.57;0.10;;;9.00;71.60;;;;;;6374780;27;20043;-69
2022/01/05 02:12:50;;;;;;;0.40;0.00;;;9.00;71.70;;;;;;6374143;27;20412;-69
2022/01/05 02:15:51;;;;;;;2.40;0.10;;;8.90;71.90;;;;;;6399911;27;20023;-69
2022/01/05 02:18:58;;;;;;;1.70;0.25;;;8.90;72.10;;;;;;6401121;27;20034;-69
2022/01/05 02:21:59;;;;;;;0.20;0.05;;;8.90;72.10;;;;;;6377025;27;20030;-69
2022/01/05 02:25:00;;;;;;;0.20;0.10;;;8.90;72.30;;;;;;6400611;27;20558;-69
2022/01/05 02:28:01;;;;;;;0.13;0.13;;;8.90;72.40;;;;;;6399120;27;20045;-69
2022/01/05 02:31:04;;;;;;;0.00;0.00;;;8.90;72.30;;;;;;6399668;27;20076;-69
2022/01/05 02:34:05;;;;;;;0.05;0.03;;;8.90;72.40;;;;;;6379945;27;20045;-69
2022/01/05 02:37:06;;;;;;;0.00;0.00;;;8.90;72.50;;;;;;6399121;27;20042;-69
2022/01/05 02:40:12;;;;;;;0.03;0.00;;;8.90;72.50;;;;;;6365206;27;20077;-69
2022/01/05 02:43:14;;;;;;;0.10;0.10;;;8.90;72.40;;;;;;6399159;27;20035;-69
2022/01/05 02:46:20;;;;;;;0.10;0.10;;;8.80;72.30;;;;;;6364545;27;20405;-70
2022/01/05 02:49:22;;;;;;;3.50;0.30;;;8.70;72.40;;;;;;6381319;27;20053;-69
2022/01/05 02:52:23;;;;;;;0.20;0.10;;;8.70;72.60;;;;;;6400054;27;20030;-69
2022/01/05 02:55:24;;;;;;;1.27;0.20;;;8.60;72.70;;;;;;6400312;27;20038;-69
2022/01/05 02:58:25;;;;;;;0.10;0.10;;;8.60;72.80;;;;;;6380829;27;20066;-69
2022/01/05 03:01:26;;;;;;;0.00;0.00;;;8.60;72.90;;;;;;6364501;27;20053;-70
2022/01/05 03:04:27;;;;;;;0.00;0.00;;;8.50;73.00;;;;;;6356493;27;20120;-69
2022/01/05 03:07:28;;;;;;;0.00;0.00;;;8.50;73.20;;;;;;6356407;27;20031;-68
2022/01/05 03:10:29;;;;;;;0.95;0.32;;;8.50;73.30;;;;;;6375056;27;20042;-68
2022/01/05 03:13:30;;;;;;;0.20;0.10;;;8.40;73.20;;;;;;6373872;27;20039;-68
2022/01/05 03:16:31;;;;;;;0.28;0.10;;;8.40;73.30;;;;;;6372860;27;20043;-68
2022/01/05 03:19:32;;;;;;;0.52;0.25;;;8.30;73.40;;;;;;6360691;27;20466;-68
2022/01/05 03:22:34;;;;;;;0.00;0.00;;;8.40;73.60;;;;;;6343836;27;20032;-68
2022/01/05 03:25:35;;;;;;;0.00;0.00;;;8.30;73.70;;;;;;6356942;27;20030;-68
2022/01/05 03:28:36;;;;;;;0.10;0.10;;;8.30;73.80;;;;;;6356342;27;20031;-67
2022/01/05 03:31:37;;;;;;;0.30;0.17;;;8.30;73.80;;;;;;6380825;27;20470;-67
2022/01/05 03:34:39;;;;;;;2.13;0.10;;;8.30;73.80;;;;;;6354780;27;20042;-68
2022/01/05 03:37:40;;;;;;;1.48;0.32;;;8.30;73.80;;;;;;6356284;27;20054;-68
2022/01/05 03:40:41;;;;;;;0.90;0.30;;;8.30;73.90;;;;;;6356361;27;20107;-68
2022/01/05 03:43:42;;;;;;;1.17;0.20;;;8.30;74.00;;;;;;6330168;28;20048;-68
2022/01/05 03:46:43;;;;;;;0.20;0.15;;;8.30;74.00;;;;;;6354617;27;20043;-68
2022/01/05 03:49:44;;;;;;;4.28;0.80;;;8.30;74.00;;;;;;6371759;27;20079;-68
2022/01/05 03:52:45;;;;;;;1.77;0.32;;;8.30;74.10;;;;;;6338396;27;20043;-68
2022/01/05 03:55:47;;;;;;;0.10;0.10;;;8.30;74.20;;;;;;6348566;27;20130;-68
2022/01/05 03:58:49;;;;;;;0.88;0.15;;;8.30;74.20;;;;;;6343040;27;20039;-68
2022/01/05 04:01:50;;;;;;;0.43;0.20;;;8.40;74.30;;;;;;6373690;27;20485;-68
2022/01/05 04:04:51;;;;;;;0.52;0.35;;;8.40;74.40;;;;;;6372011;27;20091;-68
2022/01/05 04:07:52;;;;;;;2.30;0.40;;;8.40;74.30;;;;;;6373882;27;20122;-68
2022/01/05 04:10:54;;;;;;;0.43;0.10;;;8.50;74.20;;;;;;6355793;27;20106;-70
2022/01/05 04:13:55;;;;;;;1.17;0.10;;;8.50;74.20;;;;;;6373439;27;20066;-68
2022/01/05 04:16:56;;;;;;;0.32;0.30;;;8.50;74.20;;;;;;6368962;27;20031;-69
2022/01/05 04:19:58;;;;;;;0.03;0.03;;;8.50;74.20;;;;;;6362654;27;20440;-68
2022/01/05 04:22:59;;;;;;;0.20;0.20;;;8.50;74.20;;;;;;6336635;27;20035;-68
2022/01/05 04:26:00;;;;;;;0.22;0.20;;;8.50;74.20;;;;;;6394103;27;20050;-69
2022/01/05 04:29:01;;;;;;;0.17;0.17;;;8.50;74.30;;;;;;6364953;27;20035;-69
2022/01/05 04:32:02;;;;;;;0.15;0.15;;;8.50;74.40;;;;;;6352864;27;20069;-69
2022/01/05 04:35:05;;;;;;;0.52;0.20;;;8.60;74.40;;;;;;6370766;27;20051;-69
2022/01/05 04:38:06;;;;;;;0.60;0.20;;;8.60;74.40;;;;;;6354379;27;20126;-69
2022/01/05 04:41:07;;;;;;;0.10;0.10;;;8.60;74.30;;;;;;6330172;28;20039;-69
2022/01/05 04:44:08;;;;;;;0.30;0.30;;;8.60;74.20;;;;;;6346417;28;20039;-69
2022/01/05 04:47:09;;;;;;;1.88;0.40;;;8.60;74.00;;;;;;6351954;27;20045;-69
2022/01/05 04:50:14;;;;;;;0.55;0.20;;;8.60;74.00;;;;;;6397511;27;20065;-69
2022/01/05 04:53:15;;;;;;;1.20;0.43;;;8.50;73.90;;;;;;6379272;27;20091;-70
2022/01/05 04:56:17;;;;;;;0.77;0.40;;;8.40;74.00;;;;;;6362599;27;20046;-69
2022/01/05 04:59:18;;;;;;;0.10;0.10;;;8.40;74.30;;;;;;6378485;27;20337;-69
2022/01/05 05:02:19;;;;;;;0.43;0.43;;;8.40;74.30;;;;;;6351389;28;20039;-69
2022/01/05 05:05:20;;;;;;;0.25;0.25;;;8.30;74.30;;;;;;6352797;28;20034;-69
2022/01/05 05:08:21;;;;;;;0.25;0.25;;;8.30;74.40;;;;;;6353706;28;20023;-68
2022/01/05 05:11:22;;;;;;;0.85;0.57;;;8.30;74.60;;;;;;6372338;28;20059;-69
2022/01/05 05:14:23;;;;;;;1.33;0.40;;;8.30;74.70;;;;;;6354411;28;20363;-68
2022/01/05 05:17:24;;;;;;;0.47;0.40;;;8.40;74.80;;;;;;6370847;28;20050;-69
2022/01/05 05:20:25;;;;;;;1.00;0.28;;;8.40;74.70;;;;;;6353996;28;20031;-69
2022/01/05 05:23:28;;;;;;;2.28;0.40;;;8.40;74.70;;;;;;6354217;28;20027;-68
2022/01/05 05:26:29;;;;;;;0.45;0.30;;;8.40;74.80;;;;;;6372015;28;20050;-70
2022/01/05 05:29:30;;;;;;;0.22;0.22;;;8.40;74.60;;;;;;6340714;28;20050;-69
2022/01/05 05:32:31;;;;;;;0.40;0.30;;;8.40;74.50;;;;;;6350771;28;20031;-69
2022/01/05 05:35:33;;;;;;;0.98;0.60;;;8.40;74.50;;;;;;6372304;27;20380;-68
2022/01/05 05:38:34;;;;;;;0.20;0.20;;;8.40;74.50;;;;;;6341415;27;20043;-69
2022/01/05 05:41:35;;;;;;;0.30;0.20;;;8.40;74.70;;;;;;6384755;27;20030;-70
2022/01/05 05:44:36;;;;;;;0.50;0.30;;;8.50;74.60;;;;;;6373831;27;20031;-70
2022/01/05 05:47:37;;;;;;;0.30;0.30;;;8.50;74.50;;;;;;6385768;27;20059;-70
2022/01/05 05:50:39;;;;;;;0.57;0.40;;;8.50;74.60;;;;;;6391575;27;20454;-70
2022/01/05 05:53:40;;;;;;;0.30;0.20;;;8.50;74.60;;;;;;6376369;27;20035;-71
2022/01/05 05:56:41;;;;;;;0.25;0.25;;;8.50;74.60;;;;;;6376089;27;20031;-71
2022/01/05 05:59:42;;;;;;;1.80;0.50;;;8.50;74.60;;;;;;6359841;27;20043;-70
2022/01/05 06:02:43;;;;;;;0.70;0.30;;;8.60;74.60;;;;;;6323127;27;20054;-70
2022/01/05 06:05:44;;;;;;;0.80;0.47;;;8.60;74.50;;;;;;6375864;27;20049;-71
2022/01/05 06:08:46;;;;;;;1.00;0.40;;;8.60;74.60;;;;;;6347485;28;20024;-72
2022/01/05 06:11:47;;;;;;;1.80;0.70;;;8.70;74.70;;;;;;6319890;27;20031;-72
2022/01/05 06:14:48;;;;;;;2.30;1.13;;;8.70;74.70;;;;;;6353179;27;20404;-71
2022/01/05 06:17:49;;;;;;;1.88;1.15;;;8.80;74.80;;;;;;6369271;27;20042;-70
2022/01/05 06:20:50;;;;;;;1.95;1.58;;;8.80;74.80;;;;;;6352944;27;20113;-71
2022/01/05 06:23:51;;;;;;;4.28;1.95;;;8.90;74.80;;;;;;6381815;27;20034;-71
2022/01/05 06:26:52;;;;;;;3.85;2.33;;;9.00;74.80;;;;;;6388442;27;20024;-72
2022/01/05 06:29:54;;;;;;;4.63;2.88;;;9.10;74.80;;;;;;6386741;27;20042;-72
2022/01/05 06:32:55;;;;;;;6.03;3.05;;;9.20;74.80;;;;;;6393382;27;20087;-71
2022/01/05 06:35:56;;;;;;;8.48;3.92;;;9.20;74.60;;;;;;6390252;27;20058;-71
2022/01/05 06:38:57;;;;;;;6.78;3.40;;;9.30;74.70;;;;;;6381736;27;20026;-71
2022/01/05 06:41:58;;;;;;;6.35;2.92;;;9.30;74.70;;;;;;6357261;27;20027;-71
2022/01/05 06:44:59;;;;;;;2.35;1.23;;;9.30;74.60;;;;;;6314064;27;20122;-71
2022/01/05 06:48:00;;;;;;;2.47;1.48;;;9.40;74.30;;;;;;6356146;27;20544;-72
2022/01/05 06:51:01;;;;;;;2.42;1.23;;;9.30;73.90;;;;;;6337917;28;20035;-72
2022/01/05 06:54:02;;;;;;;1.15;0.80;;;9.40;74.00;;;;;;6366285;27;20456;-72
2022/01/05 06:57:04;;;;;;;3.10;1.65;;;9.40;73.80;;;;;;6357180;27;20059;-74
2022/01/05 07:00:07;;;;;;;3.63;2.03;;;9.40;73.30;;;;;;6356687;27;20042;-72
2022/01/05 07:03:10;;;;;;;1.02;0.80;;;9.40;73.20;;;;;;6339705;27;20031;-74
2022/01/05 07:06:11;;;;;;;2.45;0.70;;;9.40;73.00;;;;;;6373607;27;20039;-72
2022/01/05 07:09:12;;;;;;;1.73;1.00;;;9.40;72.40;;;;;;6374975;27;20135;-71
2022/01/05 07:12:13;;;;;;;3.15;1.95;;;9.40;72.50;;;;;;6356096;27;20472;-71
2022/01/05 07:15:15;;;;;;;3.08;1.65;;;9.40;72.50;;;;;;6348119;27;20104;-70
2022/01/05 07:18:16;;;;;;;2.97;1.52;;;9.40;72.60;;;;;;6355723;27;20066;-71
2022/01/05 07:21:17;;;;;;;3.05;0.63;;;9.50;72.50;;;;;;6374369;27;20039;-71
2022/01/05 07:24:19;;;;;;;8.07;0.40;;;9.50;72.00;;;;;;6373155;27;20035;-72
2022/01/05 07:27:20;;;;;;;0.80;0.60;;;9.50;71.20;;;;;;6356063;27;20099;-73
2022/01/05 07:30:21;;;;;;;0.60;0.60;;;9.40;70.70;;;;;;6354082;27;20410;-71
2022/01/05 07:33:24;;;;;;;1.58;0.88;;;9.40;70.50;;;;;;6338665;27;20035;-71
2022/01/05 07:36:26;;;;;;;1.05;0.60;;;9.40;70.50;;;;;;6347646;28;20054;-71
2022/01/05 07:39:27;;;;;;;0.85;0.77;;;9.40;70.20;;;;;;6334093;28;20047;-72
2022/01/05 07:42:33;;;;;;;2.90;1.02;;;9.50;69.20;;;;;;6307297;28;20032;-71
2022/01/05 07:45:37;;;;;;;1.20;0.50;;;9.50;69.20;;;;;;6319144;28;20522;-71
2022/01/05 07:48:38;;;;;;;0.93;0.50;;;9.50;68.70;;;;;;6311437;28;20027;-71
2022/01/05 07:51:39;;;;;;;2.00;0.68;;;9.60;68.00;;;;;;6349307;28;20096;-70
2022/01/05 07:54:40;;;;;;;0.50;0.47;;;9.60;67.30;;;;;;6338223;28;20052;-70
2022/01/05 07:57:42;;;;;;;0.70;0.43;;;9.60;65.70;;;;;;6338117;28;20116;-70
2022/01/05 08:00:43;;;;;;;0.40;0.35;;;9.60;65.40;;;;;;6347205;28;20047;-70
2022/01/05 08:03:44;;;;;;;1.55;0.50;;;9.50;65.10;;;;;;6348580;28;20364;-71
2022/01/05 08:06:45;;;;;;;0.75;0.57;;;9.50;65.00;;;;;;6348549;28;20038;-70
2022/01/05 08:09:48;;;;;;;0.32;0.32;;;9.40;65.20;;;;;;6329750;28;20032;-70
2022/01/05 08:12:49;;;;;;;2.33;0.98;;;9.40;65.70;;;;;;6322528;28;20107;-72
2022/01/05 08:15:51;;;;;;;1.02;0.60;;;9.30;66.20;;;;;;6341180;28;20031;-71
2022/01/05 08:18:52;;;;;;;1.52;0.82;;;9.30;66.30;;;;;;6326146;28;20039;-70
2022/01/05 08:21:53;;;;;;;1.05;0.60;;;9.30;66.40;;;;;;6306323;28;20036;-70
2022/01/05 08:24:54;;;;;;;3.92;1.98;;;9.30;66.70;;;;;;6324012;28;20447;-70
2022/01/05 08:27:55;;;;;;;2.88;1.45;;;9.40;66.90;;;;;;6311827;28;20036;-70
2022/01/05 08:30:57;;;;;;;4.13;1.05;;;9.40;67.40;;;;;;6326356;28;20076;-71
2022/01/05 08:33:59;;;;;;;0.70;0.50;;;9.50;66.90;;;;;;6346822;28;20085;-70
2022/01/05 08:37:00;;;;;;;0.93;0.60;;;9.50;66.70;;;;;;6347650;28;20043;-70
2022/01/05 08:40:01;;;;;;;3.13;1.00;;;9.50;66.50;;;;;;6345636;28;20343;-70
2022/01/05 08:43:05;;;;;;;3.33;0.80;;;9.50;66.10;;;;;;6344498;28;20032;-70
2022/01/05 08:46:06;;;;;;;5.70;0.70;;;9.40;65.60;;;;;;6328193;28;20051;-70
2022/01/05 08:49:07;;;;;;;2.35;0.93;;;9.40;65.80;;;;;;6348353;28;20028;-71
2022/01/05 08:52:08;;;;;;;3.13;1.00;;;9.30;66.10;;;;;;6348646;28;20036;-71
2022/01/05 08:55:10;;;;;;;13.68;2.35;;;9.10;66.40;;;;;;6329719;28;20027;-70
2022/01/05 08:58:12;;;;;;;2.20;0.50;;;9.00;66.90;;;;;;6329765;28;20513;-70
2022/01/05 09:01:13;;;;;;;1.33;0.60;;;8.80;66.80;;;;;;6347452;28;20060;-70
2022/01/05 09:04:14;;;;;;;0.40;0.40;;;8.80;67.20;;;;;;6346956;28;20039;-70
2022/01/05 09:07:15;;;;;;;0.65;0.32;;;8.70;68.00;;;;;;6347039;28;20508;-70
2022/01/05 09:10:17;;;;;;;0.82;0.40;;;8.60;67.10;;;;;;6350396;28;20039;-69
2022/01/05 09:13:18;;;;;;;0.80;0.40;;;8.40;67.30;;;;;;6352465;28;20035;-71
2022/01/05 09:16:20;;;;;;;2.67;0.47;;;8.30;67.50;;;;;;6351733;27;20520;-70
2022/01/05 09:19:21;;;;;;;4.78;0.52;;;8.20;67.50;;;;;;6352284;28;20031;-71
2022/01/05 09:22:23;;;;;;;1.48;0.52;;;8.10;67.50;;;;;;6334393;28;20088;-70
2022/01/05 09:25:24;;;;;;;0.90;0.40;;;8.00;67.50;;;;;;6351794;28;20027;-69
2022/01/05 09:28:25;;;;;;;0.88;0.60;;;8.00;67.80;;;;;;6352752;27;20455;-69
2022/01/05 09:31:26;;;;;;;1.02;0.43;;;7.90;67.50;;;;;;6342442;27;20032;-70
2022/01/05 09:34:27;;;;;;;1.40;0.73;;;7.90;67.60;;;;;;6340972;28;20025;-69
2022/01/05 09:37:33;;;;;;;1.05;0.55;;;8.00;67.40;;;;;;6327700;28;20078;-70
2022/01/05 09:44:00;;;;;;;0.40;0.40;;;8.00;66.60;;;;;;6343386;27;20039;-70
2022/01/05 09:47:31;;;;;;;1.70;0.68;;;8.00;66.20;;;;;;6346527;28;20423;-70
2022/01/05 09:50:34;;;;;;;8.57;0.80;;;8.00;66.60;;;;;;6350092;28;20372;-70
2022/01/05 09:53:36;;;;;;;1.77;0.90;;;8.00;65.10;;;;;;6347237;27;20130;-70
2022/01/05 09:56:38;;;;;;;3.25;0.85;;;8.00;64.50;;;;;;6348857;28;20470;-71
2022/01/05 09:59:41;;;;;;;6.57;0.90;;;8.00;64.80;;;;;;6330181;28;20084;-71
2022/01/05 10:02:45;;;;;;;3.40;0.68;;;7.90;64.60;;;;;;6335667;28;20042;-71
2022/01/05 10:05:46;;;;;;;2.10;0.90;;;7.90;64.60;;;;;;6345981;28;20096;-71
2022/01/05 10:08:47;;;;;;;0.75;0.63;;;7.80;64.50;;;;;;6330372;28;20162;-69
2022/01/05 10:11:49;;;;;;;4.10;1.10;;;7.80;65.10;;;;;;6349260;28;20460;-71
2022/01/05 10:14:50;;;;;;;0.50;0.50;;;7.80;64.90;;;;;;6350631;28;20032;-71
2022/01/05 10:18:15;;;;;;;3.40;0.68;;;7.80;64.50;;;;;;6350949;28;20037;-70
2022/01/05 10:21:17;;;;;;;7.95;1.48;;;7.80;64.80;;;;;;6323090;27;20040;-72
2022/01/05 10:24:38;;;;;;;1.65;0.80;;;7.80;65.00;;;;;;6348072;28;20127;-71
2022/01/05 10:27:39;;;;;;;5.57;1.05;;;7.80;64.90;;;;;;6342923;27;20222;-70
2022/01/05 10:30:43;;;;;;;10.07;0.93;;;7.80;64.50;;;;;;6329736;28;20112;-71
2022/01/05 10:33:44;;;;;;;3.33;1.00;;;7.70;64.30;;;;;;6338252;28;20039;-71
2022/01/05 10:36:50;;;;;;;2.47;0.95;;;7.70;64.20;;;;;;6345627;28;20104;-71
2022/01/05 10:40:08;;;;;;;10.15;1.20;;;7.70;64.40;;;;;;6345964;27;20028;-70
2022/01/05 10:43:12;;;;;;;2.35;1.05;;;7.70;65.00;;;;;;6344645;28;20107;-72
2022/01/05 10:46:35;;;;;;;4.25;1.15;;;7.70;65.20;;;;;;6329208;27;20035;-71
2022/01/05 10:49:41;;;;;;;2.42;0.95;;;7.70;64.90;;;;;;6342057;28;20366;-71
2022/01/05 10:52:54;;;;;;;5.85;1.15;;;7.70;64.80;;;;;;6347575;27;20040;-71
2022/01/05 10:55:55;;;;;;;2.08;1.13;;;7.80;64.20;;;;;;6346533;27;20032;-70
2022/01/05 10:58:56;;;;;;;11.20;2.05;;;7.80;63.60;;;;;;6334314;28;20991;-71
2022/01/05 11:01:57;;;;;;;1.63;0.55;;;7.80;62.50;;;;;;6336277;28;20050;-71
2022/01/05 11:05:08;;;;;;;4.65;0.75;;;7.80;62.80;;;;;;6344607;27;20039;-71
2022/01/05 11:08:09;;;;;;;2.50;1.52;;;7.90;63.00;;;;;;6345156;27;20116;-70
2022/01/05 11:11:39;;;;;;;2.40;0.98;;;8.00;62.90;;;;;;6328404;28;20040;-72
2022/01/05 11:14:40;;;;;;;4.88;1.30;;;8.00;62.70;;;;;;6344080;28;20080;-71
2022/01/05 11:17:41;;;;;;;1.70;0.60;;;8.00;62.20;;;;;;6343786;27;20460;-70
2022/01/05 11:20:52;;;;;;;3.83;1.27;;;7.90;61.80;;;;;;6328056;28;20040;-72
2022/01/05 11:23:53;;;;;;;3.78;1.33;;;7.90;61.90;;;;;;6344418;28;20372;-71
2022/01/05 11:26:55;;;;;;;1.92;0.95;;;7.90;61.90;;;;;;6346007;27;20047;-72
2022/01/05 11:29:57;;;;;;;3.10;1.05;;;7.90;61.40;;;;;;6343184;28;20070;-72
2022/01/05 11:32:58;;;;;;;1.08;0.68;;;8.00;61.60;;;;;;6320921;28;20334;-71
2022/01/05 11:35:59;;;;;;;3.13;1.10;;;8.00;61.10;;;;;;6340356;27;20077;-73
2022/01/05 11:39:01;;;;;;;3.90;1.00;;;8.10;60.90;;;;;;6355228;27;20114;-71
2022/01/05 11:42:09;;;;;;;3.50;1.30;;;8.10;60.70;;;;;;6371404;27;20360;-71
2022/01/05 11:45:10;;;;;;;1.20;0.70;;;8.10;60.00;;;;;;6370057;27;20042;-74
2022/01/05 11:48:11;;;;;;;1.38;0.80;;;8.20;60.00;;;;;;6373318;27;20110;-73
2022/01/05 11:51:12;;;;;;;4.38;0.75;;;8.20;59.80;;;;;;6370509;27;20057;-72
2022/01/05 11:54:15;;;;;;;6.68;0.98;;;8.20;59.40;;;;;;6352489;27;20401;-72
2022/01/05 11:57:15;;;;;;;7.10;1.23;;;8.30;59.30;;;;;;6345319;27;20026;-72
2022/01/05 12:00:18;;;;;;;5.85;1.10;;;8.30;59.10;;;;;;6377476;27;20031;-73
2022/01/05 12:03:50;;;;;;;2.67;1.00;;;8.40;59.30;;;;;;6337809;27;20030;-73
2022/01/05 12:06:51;;;;;;;5.13;1.20;;;8.40;59.10;;;;;;6370347;27;20027;-70
2022/01/05 12:09:52;;;;;;;6.10;1.05;;;8.40;58.80;;;;;;6370670;27;20028;-71
2022/01/05 12:13:06;;;;;;;3.20;1.00;;;8.40;58.80;;;;;;6352513;27;20304;-71
2022/01/05 12:16:07;;;;;;;2.25;0.82;;;8.40;58.80;;;;;;6336647;27;20019;-71
2022/01/05 12:19:14;;;;;;;4.22;1.10;;;8.40;58.90;;;;;;6346485;27;20088;-73
2022/01/05 12:22:28;;;;;;;4.43;0.82;;;8.40;58.70;;;;;;6368357;27;20027;-70
2022/01/05 12:25:29;;;;;;;3.80;1.08;;;8.40;59.00;;;;;;6353607;27;20364;-71
2022/01/05 12:28:37;;;;;;;5.00;1.23;;;8.40;59.10;;;;;;6351058;27;20054;-73
2022/01/05 12:31:57;;;;;;;4.32;0.52;;;8.40;59.10;;;;;;6352042;27;20066;-70
2022/01/05 12:35:17;;;;;;;1.63;0.75;;;8.50;58.80;;;;;;6326939;28;20183;-70
2022/01/05 12:38:45;;;;;;;2.75;1.20;;;8.50;58.90;;;;;;6352907;27;20031;-70
2022/01/05 12:41:46;;;;;;;1.40;0.90;;;8.50;58.50;;;;;;6343004;28;20114;-71
2022/01/05 12:44:47;;;;;;;3.63;0.88;;;8.50;58.20;;;;;;6326539;28;20118;-70
2022/01/05 12:47:48;;;;;;;0.55;0.52;;;8.50;58.60;;;;;;6335626;28;20448;-70
2022/01/05 12:50:51;;;;;;;1.95;0.90;;;8.50;58.50;;;;;;6351999;28;20031;-70
2022/01/05 12:53:56;;;;;;;1.95;0.65;;;8.50;58.70;;;;;;6350910;27;20038;-70
2022/01/05 12:57:03;;;;;;;0.90;0.60;;;8.60;58.60;;;;;;6420866;27;20068;-70
2022/01/05 13:00:05;;;;;;;5.85;0.80;;;8.70;58.50;;;;;;6384196;27;20337;-70
2022/01/05 13:03:07;;;;;;;0.75;0.52;;;8.70;57.90;;;;;;6348925;28;20054;-72
2022/01/05 13:06:19;;;;;;;2.72;0.98;;;8.70;57.20;;;;;;6352109;28;20439;-70
2022/01/05 13:09:45;;;;;;;1.58;0.82;;;8.70;57.50;;;;;;6352368;28;20023;-70
2022/01/05 13:12:48;;;;;;;1.13;0.90;;;8.70;57.50;;;;;;6338763;27;20360;-70
2022/01/05 13:15:50;;;;;;;3.58;1.00;;;8.80;57.50;;;;;;6323364;28;20367;-70
2022/01/05 13:18:51;;;;;;;6.80;1.15;;;8.80;57.10;;;;;;6372139;27;20412;-70
2022/01/05 13:21:52;;;;;;;4.45;1.13;;;8.80;56.30;;;;;;6386187;27;20047;-70
2022/01/05 13:24:58;;;;;;;3.47;1.13;;;8.80;55.90;;;;;;6369907;27;20031;-70
2022/01/05 13:28:03;;;;;;;5.05;1.00;;;8.80;55.80;;;;;;6345822;27;20038;-70
2022/01/05 13:31:09;;;;;;;11.05;1.20;;;8.80;56.10;;;;;;6344554;28;20452;-72
2022/01/05 13:34:10;;;;;;;7.03;1.33;;;8.80;55.80;;;;;;6386233;27;20056;-70
2022/01/05 13:37:13;;;;;;;5.95;0.57;;;8.80;55.10;;;;;;6384799;27;20047;-70
2022/01/05 13:40:20;;;;;;;5.70;0.95;;;8.80;55.00;;;;;;6391910;27;20030;-69
2022/01/05 13:43:25;;;;;;;3.15;1.45;;;8.70;54.60;;;;;;6349695;27;20027;-71
2022/01/05 13:46:26;;;;;;;4.95;0.55;;;8.70;54.70;;;;;;6369954;27;20121;-69
2022/01/05 13:49:27;;;;;;;2.60;1.13;;;8.80;54.20;;;;;;6372569;27;20042;-69
2022/01/05 13:52:29;;;;;;;1.23;0.80;;;8.80;54.50;;;;;;6386044;27;20058;-69
2022/01/05 13:55:48;;;;;;;4.05;1.20;;;8.90;54.90;;;;;;6343909;27;20479;-69
2022/01/05 13:58:54;;;;;;;1.95;0.95;;;9.00;55.00;;;;;;6366865;27;20035;-71
2022/01/05 14:01:57;;;;;;;1.20;0.60;;;9.00;54.60;;;;;;6369594;27;20041;-69
2022/01/05 14:05:00;;;;;;;1.55;0.80;;;9.10;54.40;;;;;;6332086;27;20038;-70
2022/01/05 14:08:03;;;;;;;1.88;0.50;;;9.20;54.40;;;;;;6349030;27;20039;-70
2022/01/05 14:11:11;;;;;;;1.30;0.63;;;9.30;54.10;;;;;;6367879;27;20042;-71
2022/01/05 14:14:13;;;;;;;0.47;0.37;;;9.30;53.60;;;;;;6354159;27;20042;-71
2022/01/05 14:17:15;;;;;;;1.02;0.60;;;9.30;53.40;;;;;;6365535;27;20035;-71
2022/01/05 14:20:20;;;;;;;5.88;1.10;;;9.30;53.20;;;;;;6346019;27;20059;-70
2022/01/05 14:23:21;;;;;;;3.17;0.70;;;9.30;51.90;;;;;;6348278;27;20785;-70
2022/01/05 14:26:27;;;;;;;1.73;0.70;;;9.30;51.50;;;;;;6366370;27;20035;-70
2022/01/05 14:29:29;;;;;;;4.05;0.70;;;9.40;51.70;;;;;;6348505;27;20081;-70
2022/01/05 14:32:36;;;;;;;1.88;0.43;;;9.40;51.80;;;;;;6365666;27;20898;-70
2022/01/05 14:35:37;;;;;;;6.38;1.10;;;9.40;51.60;;;;;;6356197;27;20138;-71
2022/01/05 14:38:55;;;;;;;3.70;0.52;;;9.40;51.30;;;;;;6348166;27;20049;-69
2022/01/05 14:41:56;;;;;;;1.45;0.77;;;9.40;51.60;;;;;;6387013;27;20030;-70
2022/01/05 14:45:00;;;;;;;3.85;0.68;;;9.50;51.40;;;;;;6370574;27;20034;-69
2022/01/05 14:48:04;;;;;;;2.00;0.60;;;9.50;51.70;;;;;;6372916;27;20043;-69
2022/01/05 14:51:05;;;;;;;5.00;0.50;;;9.60;51.70;;;;;;6357597;27;20778;-70
2022/01/05 14:54:06;;;;;;;2.17;0.95;;;9.70;51.60;;;;;;6394350;27;20031;-69
2022/01/05 14:57:09;;;;;;;3.22;0.82;;;9.70;51.20;;;;;;6362434;27;20027;-70
2022/01/05 15:00:12;;;;;;;0.82;0.65;;;9.70;51.00;;;;;;6365373;27;20038;-70
2022/01/05 15:03:13;;;;;;;3.85;1.48;;;9.70;50.50;;;;;;6345310;27;20079;-71
2022/01/05 15:06:15;;;;;;;3.13;1.00;;;9.80;50.00;;;;;;6361197;27;20034;-69
2022/01/05 15:09:17;;;;;;;1.25;0.50;;;9.80;50.30;;;;;;6354217;27;20406;-69
2022/01/05 15:12:18;;;;;;;2.20;0.57;;;9.80;49.80;;;;;;6359543;27;20397;-70
2022/01/05 15:15:19;;;;;;;3.22;1.15;;;9.80;49.80;;;;;;6374872;27;20042;-70
2022/01/05 15:18:20;;;;;;;3.30;0.75;;;9.90;50.30;;;;;;6373382;27;20126;-70
2022/01/05 15:21:22;;;;;;;1.40;0.47;;;9.90;49.40;;;;;;6390079;27;20031;-70
2022/01/05 15:24:23;;;;;;;2.05;0.50;;;9.80;49.30;;;;;;6340474;27;20586;-70
2022/01/05 15:27:24;;;;;;;2.30;0.40;;;9.80;49.00;;;;;;6340152;27;20118;-68
2022/01/05 15:30:25;;;;;;;2.47;0.50;;;9.70;48.50;;;;;;6361059;27;20065;-70
2022/01/05 15:33:27;;;;;;;0.20;0.17;;;9.80;48.50;;;;;;6363776;27;20031;-70
2022/01/05 15:36:30;;;;;;;2.85;0.93;;;9.70;48.30;;;;;;6353559;27;20042;-70
2022/01/05 15:39:31;;;;;;;5.38;0.75;;;9.70;48.70;;;;;;6345151;27;20038;-69
2022/01/05 15:42:32;;;;;;;3.78;1.05;;;9.60;48.80;;;;;;6360235;27;20035;-70
2022/01/05 15:45:33;;;;;;;1.55;0.88;;;9.60;48.80;;;;;;6344068;27;20042;-71
2022/01/05 15:48:34;;;;;;;1.35;0.70;;;9.60;48.90;;;;;;6362790;27;20294;-70
2022/01/05 15:51:35;;;;;;;3.65;0.40;;;9.60;49.00;;;;;;6359623;27;20035;-71
2022/01/05 15:54:41;;;;;;;9.75;0.73;;;9.50;48.90;;;;;;6325289;27;20027;-71
2022/01/05 16:01:29;;;;;;;1.17;0.55;;;9.40;49.00;;;;;;6221887;28;20092;-70
2022/01/05 16:04:33;;;;;;;2.80;0.70;;;9.30;49.00;;;;;;6245824;28;20041;-71
2022/01/05 16:07:34;;;;;;;5.00;0.50;;;9.30;48.80;;;;;;6247736;28;20363;-70
2022/01/05 16:10:38;;;;;;;0.52;0.52;;;9.30;48.70;;;;;;6249192;28;20052;-70
2022/01/05 16:13:40;;;;;;;2.58;0.60;;;9.20;48.70;;;;;;6247350;28;20040;-70